Terminal Aerodrome Forecast
Issued by NWS

Current Version | Previous Version | Text Only | Print | Product List | Glossary Off
Versions: 1 2 3 4 5 6 7 8 9 10 11 12 13 14 15 16 17 18 19 20 21 22 23 24 25

000
FTUS41 KRLX 261120
TAFCKB
TAF
KCKB 261120Z 2612/2712 00000KT P6SM FEW250
     FM262100 21010G19KT 3SM SHRA OVC040
     FM262200 23010G19KT 2SM SHRA OVC040
     FM270000 28009KT 4SM SHRA OVC015
     FM270100 28008KT P6SM OVC015
     FM270300 27005KT P6SM BKN008
     FM270600 24005KT 4SM BR BKN008
     FM270900 VRB03KT 1SM BR SCT001=

USA.gov is the U.S. government's official web portal to all federal, state and local government web resources and services.